Time;durP1;ratioP1;P1;durP2;ratioP2;P2;SDS_P1;SDS_P2;PMS_P1;PMS_P2;Temp;Humidity;BMP_temperature;BMP_pressure;BME280_temperature;BME280_humidity;BME280_pressure;Samples;Min_cycle;Max_cycle;Signal;HPM_P1;HPM_P2
2022/01/07 00:05:50;;;;;;;1.10;0.93;;;;;;;;;;20818566;28;20230;-73
2022/01/07 00:15:54;;;;;;;0.80;0.80;;;;;;;;;;20817450;28;20218;-73
2022/01/07 00:25:55;;;;;;;0.87;0.80;;;;;;;;;;20818112;28;20444;-73
2022/01/07 00:35:59;;;;;;;1.70;0.97;;;;;;;;;;20819868;28;20245;-73
2022/01/07 00:46:00;;;;;;;1.80;1.40;;;;;;;;;;20821889;28;20210;-73
2022/01/07 00:56:02;;;;;;;1.00;0.90;;;;;;;;;;20819504;28;20276;-73
2022/01/07 01:06:04;;;;;;;2.27;0.73;;;;;;;;;;20820305;28;20354;-73
2022/01/07 01:16:06;;;;;;;0.97;0.73;;;;;;;;;;20819149;28;20249;-73
2022/01/07 01:26:07;;;;;;;0.50;0.50;;;;;;;;;;20823994;28;20269;-73
2022/01/07 01:36:09;;;;;;;1.13;1.00;;;;;;;;;;20834616;28;20260;-73
2022/01/07 01:46:11;;;;;;;2.37;2.00;;;0.80;99.90;;;;;;20832840;28;20214;-73
2022/01/07 01:56:13;;;;;;;2.83;1.77;;;;;;;;;;20833667;28;20219;-73
2022/01/07 02:06:16;;;;;;;6.70;3.20;;;;;;;;;;20830582;28;20289;-73
2022/01/07 02:16:17;;;;;;;0.37;0.37;;;;;;;;;;20829735;28;20194;-73
2022/01/07 02:26:20;;;;;;;3.03;1.30;;;;;;;;;;20830801;28;20237;-73
2022/01/07 02:36:21;;;;;;;2.10;1.40;;;;;;;;;;20828285;28;20622;-73
2022/01/07 02:46:23;;;;;;;1.27;0.93;;;;;;;;;;20829122;28;20264;-73
2022/01/07 02:56:25;;;;;;;0.80;0.70;;;;;;;;;;20828902;28;20218;-73
2022/01/07 03:06:27;;;;;;;1.77;1.47;;;;;;;;;;20821382;28;20230;-73
2022/01/07 03:16:29;;;;;;;2.27;1.33;;;;;;;;;;20820336;28;20690;-73
2022/01/07 03:26:31;;;;;;;1.93;1.03;;;;;;;;;;20825257;28;20214;-73
2022/01/07 03:36:32;;;;;;;1.07;0.80;;;;;;;;;;20826237;28;20194;-73
2022/01/07 03:46:34;;;;;;;1.30;0.50;;;;;;;;;;20807218;28;20272;-73
2022/01/07 03:56:36;;;;;;;3.33;1.50;;;;;;;;;;20824420;28;20767;-73
2022/01/07 04:06:38;;;;;;;1.67;1.07;;;;;;;;;;20823420;28;20214;-72
2022/01/07 04:16:39;;;;;;;0.97;0.83;;;;;;;;;;20821782;28;20206;-72
2022/01/07 04:26:41;;;;;;;0.77;0.30;;;;;;;;;;20821938;28;20364;-73
2022/01/07 04:36:43;;;;;;;2.27;0.70;;;;;;;;;;20803979;28;20677;-72
2022/01/07 04:46:44;;;;;;;1.10;0.90;;;;;;;;;;20821308;28;20222;-73
2022/01/07 04:56:47;;;;;;;0.70;0.70;;;;;;;;;;20820090;28;20284;-73
2022/01/07 05:06:49;;;;;;;0.70;0.70;;;;;;;;;;20819638;28;20222;-73
2022/01/07 05:16:51;;;;;;;1.03;0.90;;;;;;;;;;20835874;28;20264;-72
2022/01/07 05:26:53;;;;;;;0.20;0.20;;;;;;;;;;20828898;28;20222;-73
2022/01/07 05:36:55;;;;;;;0.50;0.50;;;;;;;;;;20835445;28;20207;-72
2022/01/07 05:46:57;;;;;;;2.00;0.93;;;;;;;;;;20833101;28;20284;-73
2022/01/07 05:56:59;;;;;;;0.30;0.30;;;;;;;;;;20833391;28;20248;-72
2022/01/07 06:07:01;;;;;;;1.80;1.20;;;;;;;;;;20832026;28;20760;-72
2022/01/07 06:27:59;;;;;;;2.57;1.73;;;;;;;;;;21078133;27;20576;-72
2022/01/07 06:38:01;;;;;;;0.87;0.83;;;;;;;;;;21010276;28;20265;-71
2022/01/07 06:48:03;;;;;;;1.50;1.40;;;;;;;;;;21009348;28;20749;-72
2022/01/07 06:58:05;;;;;;;0.60;0.60;;;;;;;;;;21025086;28;20205;-71
2022/01/07 07:08:07;;;;;;;1.73;1.63;;;;;;;;;;21023643;28;20213;-71
2022/01/07 07:18:09;;;;;;;1.97;1.07;;;;;;;;;;21005177;28;20205;-72
2022/01/07 07:28:11;;;;;;;1.10;1.00;;;;;;;;;;20979877;28;20210;-72
2022/01/07 07:38:12;;;;;;;1.80;1.40;;;0.90;99.90;;;;;;20938592;28;20205;-71
2022/01/07 07:48:14;;;;;;;2.87;1.60;;;;;;;;;;20933852;28;20218;-72
2022/01/07 07:58:17;;;;;;;1.77;1.30;;;;;;;;;;20895837;28;20271;-72
2022/01/07 08:08:19;;;;;;;1.67;1.40;;;;;;;;;;20963099;28;20294;-72
2022/01/07 08:18:23;;;;;;;1.20;0.90;;;;;;;;;;20946078;28;20209;-72
2022/01/07 08:28:29;;;;;;;5.00;2.00;;;;;;;;;;20924385;28;20213;-72
2022/01/07 08:38:31;;;;;;;1.13;1.00;;;;;;;;;;20879407;28;20276;-72
2022/01/07 08:48:35;;;;;;;0.53;0.37;;;1.20;99.90;;;;;;20876721;28;20230;-72
2022/01/07 08:58:37;;;;;;;2.07;1.17;;;;;;;;;;20877673;28;20763;-72
2022/01/07 09:08:39;;;;;;;1.83;1.37;;;;;;;;;;20877135;28;20222;-72
2022/01/07 09:18:41;;;;;;;0.53;0.53;;;;;;;;;;20876136;28;20679;-72
2022/01/07 09:28:43;;;;;;;1.30;1.10;;;;;;;;;;20859266;28;20218;-72
2022/01/07 09:38:45;;;;;;;2.77;1.77;;;;;;;;;;20858787;28;20291;-73
2022/01/07 09:48:47;;;;;;;1.37;1.07;;;;;;;;;;20857451;28;20762;-72
2022/01/07 09:58:49;;;;;;;3.77;1.17;;;;;;;;;;20873592;28;20260;-72
2022/01/07 10:09:01;;;;;;;0.93;0.73;;;1.70;99.90;;;;;;20856767;28;20252;-72
2022/01/07 10:19:03;;;;;;;0.60;0.47;;;;;;;;;;20855998;28;20221;-72
2022/01/07 10:29:28;;;;;;;1.43;1.33;;;1.70;99.90;;;;;;20872473;28;20292;-72
2022/01/07 10:39:30;;;;;;;0.50;0.50;;;2.20;99.90;;;;;;20839720;28;20190;-72
2022/01/07 10:49:32;;;;;;;1.23;1.13;;;;;;;;;;20870233;28;20363;-72
2022/01/07 10:59:34;;;;;;;0.83;0.70;;;;;;;;;;20854364;28;20231;-72
2022/01/07 11:09:36;;;;;;;0.23;0.23;;;;;;;;;;20862126;28;20213;-72
2022/01/07 11:19:41;;;;;;;1.60;1.43;;;2.10;99.90;;;;;;20869393;28;20657;-72
2022/01/07 11:30:07;;;;;;;0.50;0.50;;;1.90;99.90;;;;;;20884736;28;20295;-72
2022/01/07 11:40:09;;;;;;;3.53;1.03;;;2.00;99.90;;;;;;20867553;28;20209;-72
2022/01/07 11:50:11;;;;;;;0.70;0.57;;;;;;;;;;20883330;28;20292;-71
2022/01/07 12:00:13;;;;;;;0.30;0.30;;;;;;;;;;20866218;28;20264;-72
2022/01/07 12:10:15;;;;;;;0.50;0.43;;;;;;;;;;20864834;28;20271;-72
2022/01/07 12:20:48;;;;;;;4.07;0.70;;;2.20;99.90;;;;;;20864747;28;20213;-71
2022/01/07 12:30:52;;;;;;;0.60;0.47;;;;;;;;;;20863221;28;20578;-71
2022/01/07 12:41:00;;;;;;;0.80;0.60;;;2.10;99.90;;;;;;20862807;28;20202;-72
2022/01/07 12:51:03;;;;;;;0.97;0.87;;;;;;;;;;20863707;28;20272;-72
2022/01/07 13:01:04;;;;;;;0.23;0.23;;;;;;;;;;20862038;28;20211;-71
2022/01/07 13:11:06;;;;;;;1.20;0.80;;;;;;;;;;20860743;28;20240;-72
2022/01/07 13:21:12;;;;;;;0.50;0.50;;;2.00;99.90;;;;;;20876504;28;20564;-72
2022/01/07 13:31:15;;;;;;;0.83;0.70;;;1.90;99.90;;;;;;20875192;28;20222;-72
2022/01/07 13:41:17;;;;;;;1.37;0.60;;;;;;;;;;20858478;28;20743;-72
2022/01/07 13:51:19;;;;;;;0.60;0.60;;;2.00;99.90;;;;;;20873994;28;20640;-72
2022/01/07 14:01:22;;;;;;;0.57;0.53;;;;;;;;;;20874127;28;20676;-72
2022/01/07 14:11:24;;;;;;;0.10;0.10;;;;;;;;;;20856699;28;20221;-72
2022/01/07 14:21:26;;;;;;;0.37;0.37;;;2.10;99.90;;;;;;20856052;28;20628;-72
2022/01/07 14:31:27;;;;;;;1.87;0.73;;;;;;;;;;20855749;28;20629;-72
2022/01/07 14:41:29;;;;;;;0.80;0.50;;;;;;;;;;20842100;28;20276;-72
2022/01/07 14:51:32;;;;;;;0.77;0.77;;;;;;;;;;20887578;28;20790;-72
2022/01/07 15:01:34;;;;;;;0.40;0.40;;;;;;;;;;20887012;28;20574;-72
2022/01/07 15:11:36;;;;;;;0.23;0.23;;;;;;;;;;20870031;28;20244;-72
2022/01/07 15:21:39;;;;;;;0.70;0.70;;;1.90;99.90;;;;;;20869470;28;20295;-72
2022/01/07 15:31:41;;;;;;;1.10;1.00;;;;;;;;;;20884322;28;20280;-72
2022/01/07 15:41:43;;;;;;;1.17;0.90;;;2.10;99.90;;;;;;20883437;28;20343;-72
2022/01/07 15:51:45;;;;;;;0.50;0.30;;;;;;;;;;20834423;28;20221;-72
2022/01/07 16:01:48;;;;;;;0.37;0.37;;;;;;;;;;20898881;28;20217;-72
2022/01/07 16:11:50;;;;;;;1.03;0.93;;;;;;;;;;20898427;28;20648;-72
2022/01/07 16:21:52;;;;;;;1.17;0.83;;;;;;;;;;20865117;28;20267;-72
2022/01/07 16:31:54;;;;;;;1.57;0.77;;;;;;;;;;20864968;28;20214;-71
2022/01/07 16:41:56;;;;;;;0.50;0.40;;;;;;;;;;20879678;28;20244;-71
2022/01/07 16:51:58;;;;;;;0.70;0.63;;;;;;;;;;20878634;28;20252;-71
2022/01/07 17:02:00;;;;;;;0.20;0.20;;;-0.10;99.90;;;;;;20906999;28;20210;-71
2022/01/07 17:12:02;;;;;;;0.50;0.50;;;;;;;;;;20876797;28;20686;-71
2022/01/07 17:22:05;;;;;;;0.80;0.70;;;;;;;;;;20896950;28;20284;-71
2022/01/07 17:32:08;;;;;;;0.40;0.40;;;;;;;;;;20889210;28;20224;-70
2022/01/07 17:42:09;;;;;;;0.20;0.20;;;;;;;;;;20915592;28;20210;-70
2022/01/07 17:52:11;;;;;;;0.50;0.50;;;2.20;99.90;;;;;;20876149;28;20226;-70
2022/01/07 18:02:14;;;;;;;0.43;0.30;;;;;;;;;;20890763;28;20251;-70
2022/01/07 18:12:16;;;;;;;0.90;0.63;;;;;;;;;;20857382;28;20279;-70
2022/01/07 18:22:18;;;;;;;0.27;0.27;;;;;;;;;;20873268;28;20241;-70
2022/01/07 18:32:20;;;;;;;0.43;0.33;;;;;;;;;;20857157;28;20217;-71
2022/01/07 18:42:22;;;;;;;0.20;0.20;;;;;;;;;;20858687;28;20210;-70
2022/01/07 18:52:24;;;;;;;0.20;0.20;;;;;;;;;;20859753;28;20275;-70
2022/01/07 19:02:26;;;;;;;0.50;0.30;;;;;;;;;;20914356;28;20563;-70
2022/01/07 19:12:28;;;;;;;0.47;0.47;;;;;;;;;;20921954;28;20217;-70
2022/01/07 19:22:30;;;;;;;0.47;0.47;;;;;;;;;;20954775;28;20267;-71
2022/01/07 19:32:32;;;;;;;0.67;0.67;;;;;;;;;;20935362;28;20221;-71
2022/01/07 19:42:34;;;;;;;0.77;0.50;;;;;;;;;;20934209;28;20229;-71
2022/01/07 19:52:36;;;;;;;0.37;0.37;;;;;;;;;;20869072;28;20218;-71
2022/01/07 20:02:39;;;;;;;0.40;0.40;;;1.90;99.90;;;;;;20901146;28;20221;-70
2022/01/07 20:12:41;;;;;;;0.70;0.70;;;;;;;;;;20881951;28;20272;-70
2022/01/07 20:22:44;;;;;;;0.20;0.20;;;2.30;99.90;;;;;;20881612;28;20315;-70
2022/01/07 20:32:46;;;;;;;0.50;0.50;;;;;;;;;;20865453;28;20218;-70
2022/01/07 20:42:49;;;;;;;0.30;0.30;;;2.50;99.90;;;;;;20864306;28;20210;-70
2022/01/07 20:52:51;;;;;;;0.40;0.40;;;;;;;;;;20895331;28;20783;-70
2022/01/07 21:02:53;;;;;;;0.50;0.43;;;;;;;;;;20862623;28;20669;-70
2022/01/07 21:12:55;;;;;;;1.00;0.80;;;;;;;;;;20876427;28;20311;-70
2022/01/07 21:22:57;;;;;;;0.40;0.40;;;;;;;;;;20877635;28;20218;-70
2022/01/07 21:32:59;;;;;;;0.67;0.47;;;;;;;;;;20875792;28;20218;-71
2022/01/07 21:43:01;;;;;;;0.30;0.30;;;;;;;;;;20874171;28;20221;-70
2022/01/07 21:53:03;;;;;;;0.40;0.40;;;;;;;;;;20916168;28;20275;-70
2022/01/07 22:03:05;;;;;;;0.20;0.20;;;;;;;;;;20895916;28;20247;-71
2022/01/07 22:13:08;;;;;;;0.20;0.20;;;;;;;;;;20913389;28;20605;-71
2022/01/07 22:23:10;;;;;;;1.30;0.60;;;;;;;;;;20951850;28;20288;-71
2022/01/07 22:33:12;;;;;;;0.73;0.53;;;;;;;;;;20944558;23;20221;-74
2022/01/07 22:43:14;;;;;;;0.60;0.40;;;;;;;;;;20986225;28;20255;-74
2022/01/07 22:53:16;;;;;;;0.27;0.27;;;;;;;;;;20980803;28;20233;-74
2022/01/07 23:03:18;;;;;;;0.27;0.20;;;;;;;;;;20990761;28;20213;-74
2022/01/07 23:13:20;;;;;;;0.30;0.30;;;;;;;;;;20991837;28;20567;-74
2022/01/07 23:23:23;;;;;;;0.37;0.37;;;;;;;;;;21001037;28;20201;-74
2022/01/07 23:33:24;;;;;;;0.67;0.47;;;;;;;;;;20981333;28;20221;-74
2022/01/07 23:43:26;;;;;;;0.20;0.20;;;;;;;;;;20995833;28;20229;-74
2022/01/07 23:53:29;;;;;;;2.77;0.50;;;;;;;;;;20997263;28;20643;-75
